Time,TemperatureF,DewpointF,PressureIn,WindDirection,WindDirectionDegrees,WindSpeedMPH,WindSpeedGustMPH,Humidity,HourlyPrecipIn,Conditions,Clouds,dailyrainin,SoftwareType,DateUTC
2014-10-21 00:03:00,54.5,53.0,29.89,WSW,255,0.0,0.0,94,0.00,,,0.04,weatherlink.com 1.10,2014-10-21 04:03:00,
2014-10-21 00:18:00,54.3,53.0,29.89,WSW,255,0.0,0.0,94,0.00,,,0.04,weatherlink.com 1.10,2014-10-21 04:18:00,
2014-10-21 00:33:00,54.1,53.0,29.89,WSW,250,0.0,0.0,94,0.00,,,0.04,weatherlink.com 1.10,2014-10-21 04:33:00,
2014-10-21 00:48:00,53.7,52.0,29.89,WSW,250,0.0,0.0,95,0.00,,,0.04,weatherlink.com 1.10,2014-10-21 04:48:00,
2014-10-21 01:03:00,53.0,52.0,29.89,WSW,250,0.0,0.0,95,0.00,,,0.04,weatherlink.com 1.10,2014-10-21 05:03:00,
2014-10-21 01:18:00,53.0,52.0,29.89,WNW,285,0.0,2.0,96,0.00,,,0.04,weatherlink.com 1.10,2014-10-21 05:18:00,
2014-10-21 01:33:00,53.0,52.0,29.89,West,274,0.0,2.0,96,0.00,,,0.04,weatherlink.com 1.10,2014-10-21 05:33:00,
2014-10-21 01:48:00,53.2,52.0,29.89,WNW,285,0.0,2.0,95,0.00,,,0.04,weatherlink.com 1.10,2014-10-21 05:48:00,
2014-10-21 02:03:00,53.0,52.0,29.89,West,277,0.0,2.0,95,0.00,,,0.04,weatherlink.com 1.10,2014-10-21 06:03:00,
2014-10-21 02:18:00,52.9,52.0,29.89,WNW,285,0.0,2.0,95,0.00,,,0.00,weatherlink.com 1.10,2014-10-21 06:18:00,
2014-10-21 02:33:00,52.5,51.0,29.89,NW,307,0.0,0.0,95,0.00,,,0.00,weatherlink.com 1.10,2014-10-21 06:33:00,
2014-10-21 02:48:00,52.2,51.0,29.90,NW,307,0.0,0.0,95,0.00,,,0.00,weatherlink.com 1.10,2014-10-21 06:48:00,
2014-10-21 03:03:00,52.0,51.0,29.90,North,1,0.0,0.0,96,0.00,,,0.00,weatherlink.com 1.10,2014-10-21 07:03:00,
2014-10-21 03:18:00,51.9,51.0,29.90,North,1,0.0,0.0,96,0.00,,,0.00,weatherlink.com 1.10,2014-10-21 07:18:00,
2014-10-21 03:33:00,52.2,51.0,29.90,North,354,0.0,1.0,95,0.00,,,0.00,weatherlink.com 1.10,2014-10-21 07:33:00,
2014-10-21 03:48:00,51.8,51.0,29.90,NNW,338,0.0,0.0,96,0.00,,,0.00,weatherlink.com 1.10,2014-10-21 07:48:00,
2014-10-21 04:03:00,51.4,50.0,29.90,NNW,338,0.0,0.0,96,0.00,,,0.00,weatherlink.com 1.10,2014-10-21 08:03:00,
2014-10-21 04:18:00,51.6,51.0,29.90,West,266,1.0,1.0,97,0.00,,,0.00,weatherlink.com 1.10,2014-10-21 08:18:00,
2014-10-21 04:33:00,51.6,51.0,29.90,WNW,283,0.0,1.0,97,0.00,,,0.00,weatherlink.com 1.10,2014-10-21 08:33:00,
2014-10-21 04:48:00,51.4,51.0,29.91,SW,232,0.0,1.0,97,0.00,,,0.00,weatherlink.com 1.10,2014-10-21 08:48:00,
2014-10-21 05:03:00,51.2,50.0,29.91,West,278,0.0,3.0,96,0.00,,,0.00,weatherlink.com 1.10,2014-10-21 09:03:00,
2014-10-21 05:18:00,50.3,50.0,29.91,West,269,0.0,4.0,100,0.00,,,0.00,weatherlink.com 1.10,2014-10-21 09:18:00,
2014-10-21 05:33:00,-999.0,-99.9,29.92,North,-999,-999.0,-999.0,-999,0.00,,,0.00,weatherlink.com 1.10,2014-10-21 09:33:00,
2014-10-21 05:48:00,-999.0,-99.9,29.92,North,-999,-999.0,-999.0,-999,0.00,,,0.00,weatherlink.com 1.10,2014-10-21 09:48:00,
2014-10-21 06:03:00,-999.0,-99.9,29.93,North,-999,-999.0,-999.0,-999,0.00,,,0.00,weatherlink.com 1.10,2014-10-21 10:03:00,
2014-10-21 06:18:00,-999.0,-99.9,29.93,North,-999,-999.0,-999.0,-999,0.00,,,0.00,weatherlink.com 1.10,2014-10-21 10:18:00,
2014-10-21 06:34:00,-999.0,-99.9,29.93,North,-999,-999.0,-999.0,-999,0.00,,,0.00,weatherlink.com 1.10,2014-10-21 10:34:00,
2014-10-21 06:49:00,-999.0,-99.9,29.94,North,-999,-999.0,-999.0,-999,0.00,,,0.00,weatherlink.com 1.10,2014-10-21 10:49:00,
2014-10-21 07:04:00,-999.0,-99.9,29.94,North,-999,-999.0,-999.0,-999,0.00,,,0.00,weatherlink.com 1.10,2014-10-21 11:04:00,
2014-10-21 07:19:00,-999.0,-99.9,29.94,North,-999,-999.0,-999.0,-999,0.00,,,0.00,weatherlink.com 1.10,2014-10-21 11:19:00,
2014-10-21 07:34:00,-999.0,-99.9,29.95,North,-999,-999.0,-999.0,-999,0.00,,,0.00,weatherlink.com 1.10,2014-10-21 11:34:00,
2014-10-21 07:49:00,-999.0,-99.9,29.95,North,-999,-999.0,-999.0,-999,0.00,,,0.00,weatherlink.com 1.10,2014-10-21 11:49:00,
2014-10-21 08:04:00,-999.0,-99.9,29.95,North,-999,-999.0,-999.0,-999,0.00,,,0.00,weatherlink.com 1.10,2014-10-21 12:04:00,
2014-10-21 08:19:00,-999.0,-99.9,29.96,North,-999,-999.0,-999.0,-999,0.00,,,0.00,weatherlink.com 1.10,2014-10-21 12:19:00,
2014-10-21 08:34:00,-999.0,-99.9,29.96,North,-999,-999.0,-999.0,-999,0.00,,,0.00,weatherlink.com 1.10,2014-10-21 12:34:00,
2014-10-21 08:49:00,48.5,47.0,29.97,WNW,297,0.0,2.0,95,0.00,,,0.00,weatherlink.com 1.10,2014-10-21 12:49:00,
2014-10-21 09:04:00,49.1,48.0,29.98,West,274,0.0,4.0,95,0.00,,,0.00,weatherlink.com 1.10,2014-10-21 13:04:00,
2014-10-21 09:19:00,49.7,48.0,29.99,WNW,291,0.0,5.0,94,0.00,,,0.00,weatherlink.com 1.10,2014-10-21 13:19:00,
2014-10-21 09:34:00,50.2,48.0,29.99,West,263,1.0,4.0,93,0.00,,,0.00,weatherlink.com 1.10,2014-10-21 13:34:00,
2014-10-21 09:49:00,50.6,48.0,30.00,WNW,292,1.0,8.0,90,0.00,,,0.00,weatherlink.com 1.10,2014-10-21 13:49:00,
2014-10-21 10:04:00,51.6,48.0,30.00,SW,215,1.0,4.0,88,0.00,,,0.00,weatherlink.com 1.10,2014-10-21 14:04:00,
2014-10-21 10:19:00,52.3,48.0,30.00,West,270,0.0,5.0,85,0.00,,,0.00,weatherlink.com 1.10,2014-10-21 14:19:00,
2014-10-21 10:34:00,53.0,47.0,30.00,West,265,2.0,8.0,81,0.00,,,0.00,weatherlink.com 1.10,2014-10-21 14:34:00,
2014-10-21 10:49:00,53.1,47.0,30.00,NW,323,1.0,10.0,79,0.00,,,0.00,weatherlink.com 1.10,2014-10-21 14:49:00,
2014-10-21 11:04:00,53.4,46.0,30.01,WNW,284,1.0,7.0,76,0.00,,,0.00,weatherlink.com 1.10,2014-10-21 15:04:00,
2014-10-21 11:19:00,53.4,46.0,30.01,ENE,72,0.0,5.0,76,0.00,,,0.00,weatherlink.com 1.10,2014-10-21 15:19:00,
2014-10-21 11:35:00,54.1,46.0,30.01,West,263,1.0,9.0,75,0.00,,,0.00,weatherlink.com 1.10,2014-10-21 15:35:00,
2014-10-21 11:50:00,55.8,45.0,30.01,SW,225,3.0,10.0,67,0.00,,,0.00,weatherlink.com 1.10,2014-10-21 15:50:00,
2014-10-21 12:05:00,55.7,45.0,30.01,NNE,16,1.0,8.0,68,0.00,,,0.00,weatherlink.com 1.10,2014-10-21 16:05:00,
2014-10-21 12:20:00,54.2,45.0,30.01,NW,307,1.0,9.0,70,0.00,,,0.00,weatherlink.com 1.10,2014-10-21 16:20:00,
2014-10-21 12:35:00,53.7,44.0,30.02,NW,311,3.0,8.0,71,0.00,,,0.00,weatherlink.com 1.10,2014-10-21 16:35:00,
2014-10-21 12:50:00,54.6,46.0,30.01,SSE,162,0.0,5.0,73,0.00,,,0.00,weatherlink.com 1.10,2014-10-21 16:50:00,
2014-10-21 13:05:00,54.1,45.0,30.01,NNW,344,2.0,9.0,70,0.00,,,0.00,weatherlink.com 1.10,2014-10-21 17:05:00,
2014-10-21 13:21:00,53.8,45.0,30.01,ENE,74,1.0,8.0,72,0.00,,,0.00,weatherlink.com 1.10,2014-10-21 17:21:00,
2014-10-21 13:35:00,54.0,45.0,30.01,NE,56,2.0,6.0,72,0.00,,,0.00,weatherlink.com 1.10,2014-10-21 17:35:00,
2014-10-21 13:50:00,53.4,44.0,30.01,WNW,288,5.0,10.0,71,0.00,,,0.00,weatherlink.com 1.10,2014-10-21 17:50:00,
2014-10-21 14:05:00,53.3,44.0,30.02,NNE,17,3.0,7.0,72,0.00,,,0.00,weatherlink.com 1.10,2014-10-21 18:05:00,
2014-10-21 14:20:00,53.4,45.0,30.02,East,98,2.0,9.0,72,0.00,,,0.00,weatherlink.com 1.10,2014-10-21 18:20:00,
2014-10-21 14:35:00,53.5,44.0,30.02,WNW,294,4.0,7.0,71,0.00,,,0.00,weatherlink.com 1.10,2014-10-21 18:35:00,
2014-10-21 14:50:00,53.2,45.0,30.02,NNE,12,2.0,5.0,73,0.00,,,0.00,weatherlink.com 1.10,2014-10-21 18:50:00,
2014-10-21 15:05:00,53.1,45.0,30.02,NNW,342,0.0,6.0,74,0.00,,,0.00,weatherlink.com 1.10,2014-10-21 19:05:00,
2014-10-21 15:20:00,52.7,45.0,30.03,NNW,340,0.0,7.0,75,0.00,,,0.00,weatherlink.com 1.10,2014-10-21 19:20:00,
2014-10-21 15:35:00,52.7,45.0,30.03,NNE,23,0.0,5.0,76,0.00,,,0.00,weatherlink.com 1.10,2014-10-21 19:35:00,
2014-10-21 15:50:00,53.1,45.0,30.04,West,278,1.0,3.0,75,0.00,,,0.00,weatherlink.com 1.10,2014-10-21 19:50:00,
2014-10-21 16:05:00,52.9,45.0,30.04,North,352,9.0,9.0,75,0.00,,,0.00,weatherlink.com 1.10,2014-10-21 20:05:00,
2014-10-21 16:20:00,52.7,45.0,30.05,North,353,3.0,8.0,76,0.00,,,0.00,weatherlink.com 1.10,2014-10-21 20:20:00,
2014-10-21 16:35:00,53.2,45.0,30.05,NNW,328,2.0,4.0,75,0.00,,,0.00,weatherlink.com 1.10,2014-10-21 20:35:00,
2014-10-21 16:50:00,53.1,45.0,30.05,West,271,4.0,5.0,75,0.00,,,0.00,weatherlink.com 1.10,2014-10-21 20:50:00,